sensor_id;sensor_type;location;lat;lon;timestamp;temperature;humidity
8707;DHT22;4390;49.302;9.306;2022-08-01T00:00:07;22.90;71.70
8707;DHT22;4390;49.302;9.306;2022-08-01T00:02:39;22.80;71.90
8707;DHT22;4390;49.302;9.306;2022-08-01T00:05:08;22.70;72.10
8707;DHT22;4390;49.302;9.306;2022-08-01T00:07:35;22.70;72.10
8707;DHT22;4390;49.302;9.306;2022-08-01T00:10:07;22.70;72.00
8707;DHT22;4390;49.302;9.306;2022-08-01T00:12:34;22.70;72.10
8707;DHT22;4390;49.302;9.306;2022-08-01T00:15:01;22.70;72.40
8707;DHT22;4390;49.302;9.306;2022-08-01T00:17:28;22.70;72.20
8707;DHT22;4390;49.302;9.306;2022-08-01T00:19:55;22.60;72.00
8707;DHT22;4390;49.302;9.306;2022-08-01T00:22:22;22.60;72.00
8707;DHT22;4390;49.302;9.306;2022-08-01T00:24:49;22.50;72.10
8707;DHT22;4390;49.302;9.306;2022-08-01T00:27:16;22.40;72.30
8707;DHT22;4390;49.302;9.306;2022-08-01T00:29:42;22.40;72.30
8707;DHT22;4390;49.302;9.306;2022-08-01T00:32:32;22.40;72.30
8707;DHT22;4390;49.302;9.306;2022-08-01T00:34:59;22.50;72.30
8707;DHT22;4390;49.302;9.306;2022-08-01T00:37:26;22.50;72.20
8707;DHT22;4390;49.302;9.306;2022-08-01T00:39:53;22.50;72.10
8707;DHT22;4390;49.302;9.306;2022-08-01T00:42:20;22.50;72.50
8707;DHT22;4390;49.302;9.306;2022-08-01T00:44:46;22.40;72.80
8707;DHT22;4390;49.302;9.306;2022-08-01T00:47:13;22.20;73.10
8707;DHT22;4390;49.302;9.306;2022-08-01T00:49:40;22.00;73.70
8707;DHT22;4390;49.302;9.306;2022-08-01T00:52:08;22.00;73.90
8707;DHT22;4390;49.302;9.306;2022-08-01T00:54:35;21.90;74.10
8707;DHT22;4390;49.302;9.306;2022-08-01T00:57:03;21.90;74.10
8707;DHT22;4390;49.302;9.306;2022-08-01T00:59:34;21.90;74.20
8707;DHT22;4390;49.302;9.306;2022-08-01T01:02:02;21.80;74.10
8707;DHT22;4390;49.302;9.306;2022-08-01T01:04:40;21.80;74.10
8707;DHT22;4390;49.302;9.306;2022-08-01T01:07:13;21.80;74.10
8707;DHT22;4390;49.302;9.306;2022-08-01T01:10:00;21.80;74.30
8707;DHT22;4390;49.302;9.306;2022-08-01T01:12:44;21.70;74.70
8707;DHT22;4390;49.302;9.306;2022-08-01T01:15:43;21.50;75.10
8707;DHT22;4390;49.302;9.306;2022-08-01T01:18:22;21.30;75.30
8707;DHT22;4390;49.302;9.306;2022-08-01T01:26:40;21.40;75.50
8707;DHT22;4390;49.302;9.306;2022-08-01T01:29:13;21.20;75.90
8707;DHT22;4390;49.302;9.306;2022-08-01T01:31:53;21.20;76.00
8707;DHT22;4390;49.302;9.306;2022-08-01T01:34:23;21.30;75.80
8707;DHT22;4390;49.302;9.306;2022-08-01T01:36:52;21.30;75.80
8707;DHT22;4390;49.302;9.306;2022-08-01T01:39:22;21.30;75.70
8707;DHT22;4390;49.302;9.306;2022-08-01T01:41:53;21.30;75.60
8707;DHT22;4390;49.302;9.306;2022-08-01T01:44:21;21.30;75.70
8707;DHT22;4390;49.302;9.306;2022-08-01T01:46:50;21.20;75.80
8707;DHT22;4390;49.302;9.306;2022-08-01T01:49:22;21.10;76.00
8707;DHT22;4390;49.302;9.306;2022-08-01T01:51:51;21.00;76.10
8707;DHT22;4390;49.302;9.306;2022-08-01T01:54:31;20.90;76.60
8707;DHT22;4390;49.302;9.306;2022-08-01T01:57:00;20.90;76.70
8707;DHT22;4390;49.302;9.306;2022-08-01T01:59:31;20.90;76.80
8707;DHT22;4390;49.302;9.306;2022-08-01T02:02:01;21.00;76.50
8707;DHT22;4390;49.302;9.306;2022-08-01T02:04:34;21.10;75.80
8707;DHT22;4390;49.302;9.306;2022-08-01T02:07:03;21.20;75.40
8707;DHT22;4390;49.302;9.306;2022-08-01T02:09:30;21.30;75.20
8707;DHT22;4390;49.302;9.306;2022-08-01T02:11:59;21.30;75.50
8707;DHT22;4390;49.302;9.306;2022-08-01T02:14:35;21.20;75.70
8707;DHT22;4390;49.302;9.306;2022-08-01T02:17:02;21.10;76.00
8707;DHT22;4390;49.302;9.306;2022-08-01T02:19:30;21.00;75.90
8707;DHT22;4390;49.302;9.306;2022-08-01T02:22:14;21.00;75.60
8707;DHT22;4390;49.302;9.306;2022-08-01T02:24:45;21.00;75.50
8707;DHT22;4390;49.302;9.306;2022-08-01T02:27:19;21.00;75.30
8707;DHT22;4390;49.302;9.306;2022-08-01T02:30:02;21.00;75.20
8707;DHT22;4390;49.302;9.306;2022-08-01T02:32:39;20.90;75.20
8707;DHT22;4390;49.302;9.306;2022-08-01T02:35:13;20.80;75.40
8707;DHT22;4390;49.302;9.306;2022-08-01T02:37:45;20.70;75.60
8707;DHT22;4390;49.302;9.306;2022-08-01T02:40:16;20.70;75.80
8707;DHT22;4390;49.302;9.306;2022-08-01T02:42:47;20.70;75.80
8707;DHT22;4390;49.302;9.306;2022-08-01T02:45:18;20.80;75.60
8707;DHT22;4390;49.302;9.306;2022-08-01T02:47:45;20.90;75.30
8707;DHT22;4390;49.302;9.306;2022-08-01T02:50:14;20.90;75.20
8707;DHT22;4390;49.302;9.306;2022-08-01T02:52:47;21.00;75.10
8707;DHT22;4390;49.302;9.306;2022-08-01T02:55:14;21.00;75.30
8707;DHT22;4390;49.302;9.306;2022-08-01T02:57:44;20.90;75.60
8707;DHT22;4390;49.302;9.306;2022-08-01T03:00:23;20.80;75.80
8707;DHT22;4390;49.302;9.306;2022-08-01T03:02:52;20.70;75.90
8707;DHT22;4390;49.302;9.306;2022-08-01T03:05:22;20.70;75.90
8707;DHT22;4390;49.302;9.306;2022-08-01T03:07:51;20.70;76.00
8707;DHT22;4390;49.302;9.306;2022-08-01T03:10:20;20.60;76.40
8707;DHT22;4390;49.302;9.306;2022-08-01T03:12:49;20.50;76.60
8707;DHT22;4390;49.302;9.306;2022-08-01T03:15:17;20.40;76.90
8707;DHT22;4390;49.302;9.306;2022-08-01T03:17:46;20.40;77.00
8707;DHT22;4390;49.302;9.306;2022-08-01T03:20:16;20.30;77.40
8707;DHT22;4390;49.302;9.306;2022-08-01T03:22:45;20.20;77.60
8707;DHT22;4390;49.302;9.306;2022-08-01T03:25:16;20.20;77.60
8707;DHT22;4390;49.302;9.306;2022-08-01T03:27:47;20.20;77.40
8707;DHT22;4390;49.302;9.306;2022-08-01T03:30:15;20.30;77.30
8707;DHT22;4390;49.302;9.306;2022-08-01T03:32:42;20.10;77.70
8707;DHT22;4390;49.302;9.306;2022-08-01T03:35:09;20.00;78.10
8707;DHT22;4390;49.302;9.306;2022-08-01T03:37:55;19.90;78.50
8707;DHT22;4390;49.302;9.306;2022-08-01T03:43:34;20.00;78.30
8707;DHT22;4390;49.302;9.306;2022-08-01T03:46:07;19.90;78.30
8707;DHT22;4390;49.302;9.306;2022-08-01T03:48:39;19.90;78.40
8707;DHT22;4390;49.302;9.306;2022-08-01T03:51:07;20.00;78.30
8707;DHT22;4390;49.302;9.306;2022-08-01T03:53:36;20.00;77.90
8707;DHT22;4390;49.302;9.306;2022-08-01T03:56:08;20.00;77.80
8707;DHT22;4390;49.302;9.306;2022-08-01T03:58:38;20.00;78.20
8707;DHT22;4390;49.302;9.306;2022-08-01T04:01:06;19.80;78.70
8707;DHT22;4390;49.302;9.306;2022-08-01T04:03:41;19.70;78.90
8707;DHT22;4390;49.302;9.306;2022-08-01T04:06:09;19.60;78.40
8707;DHT22;4390;49.302;9.306;2022-08-01T04:08:38;19.60;78.40
8707;DHT22;4390;49.302;9.306;2022-08-01T04:11:07;19.60;78.40
8707;DHT22;4390;49.302;9.306;2022-08-01T04:13:35;19.60;78.30
8707;DHT22;4390;49.302;9.306;2022-08-01T04:16:04;19.80;78.10
8707;DHT22;4390;49.302;9.306;2022-08-01T04:18:31;19.90;77.70
8707;DHT22;4390;49.302;9.306;2022-08-01T04:20:59;19.90;77.60
8707;DHT22;4390;49.302;9.306;2022-08-01T04:23:26;20.00;77.50
8707;DHT22;4390;49.302;9.306;2022-08-01T04:25:54;20.00;77.40
8707;DHT22;4390;49.302;9.306;2022-08-01T04:28:22;20.10;77.30
8707;DHT22;4390;49.302;9.306;2022-08-01T04:30:53;20.10;77.30
8707;DHT22;4390;49.302;9.306;2022-08-01T04:33:29;20.10;77.40
8707;DHT22;4390;49.302;9.306;2022-08-01T04:35:57;20.10;77.30
8707;DHT22;4390;49.302;9.306;2022-08-01T04:38:32;20.10;77.20
8707;DHT22;4390;49.302;9.306;2022-08-01T04:41:00;20.10;77.10
8707;DHT22;4390;49.302;9.306;2022-08-01T04:43:36;20.10;77.40
8707;DHT22;4390;49.302;9.306;2022-08-01T04:46:04;20.00;77.60
8707;DHT22;4390;49.302;9.306;2022-08-01T04:48:32;19.90;77.70
8707;DHT22;4390;49.302;9.306;2022-08-01T04:51:02;19.90;77.90
8707;DHT22;4390;49.302;9.306;2022-08-01T04:53:29;19.90;77.90
8707;DHT22;4390;49.302;9.306;2022-08-01T04:55:58;19.90;78.10
8707;DHT22;4390;49.302;9.306;2022-08-01T04:58:25;19.90;78.20
8707;DHT22;4390;49.302;9.306;2022-08-01T05:00:52;19.90;78.20
8707;DHT22;4390;49.302;9.306;2022-08-01T05:03:19;19.90;78.40
8707;DHT22;4390;49.302;9.306;2022-08-01T05:05:45;19.90;78.40
8707;DHT22;4390;49.302;9.306;2022-08-01T05:08:12;20.00;78.40
8707;DHT22;4390;49.302;9.306;2022-08-01T05:10:39;20.10;78.20
8707;DHT22;4390;49.302;9.306;2022-08-01T05:13:05;20.20;78.00
8707;DHT22;4390;49.302;9.306;2022-08-01T05:15:34;20.20;77.90
8707;DHT22;4390;49.302;9.306;2022-08-01T05:18:03;20.20;77.90
8707;DHT22;4390;49.302;9.306;2022-08-01T05:20:33;20.00;78.20
8707;DHT22;4390;49.302;9.306;2022-08-01T05:23:00;19.80;78.50
8707;DHT22;4390;49.302;9.306;2022-08-01T05:25:26;19.80;78.60
8707;DHT22;4390;49.302;9.306;2022-08-01T05:28:14;20.00;78.50
8707;DHT22;4390;49.302;9.306;2022-08-01T05:30:45;20.10;78.20
8707;DHT22;4390;49.302;9.306;2022-08-01T05:33:11;20.20;77.90
8707;DHT22;4390;49.302;9.306;2022-08-01T05:35:38;20.30;77.80
8707;DHT22;4390;49.302;9.306;2022-08-01T05:38:15;20.30;77.70
8707;DHT22;4390;49.302;9.306;2022-08-01T05:40:41;20.20;77.80
8707;DHT22;4390;49.302;9.306;2022-08-01T05:43:08;20.20;77.90
8707;DHT22;4390;49.302;9.306;2022-08-01T05:45:35;20.30;77.90
8707;DHT22;4390;49.302;9.306;2022-08-01T05:48:02;20.30;77.90
8707;DHT22;4390;49.302;9.306;2022-08-01T05:50:29;20.40;77.80
8707;DHT22;4390;49.302;9.306;2022-08-01T05:52:56;20.50;77.40
8707;DHT22;4390;49.302;9.306;2022-08-01T05:55:22;20.70;77.00
8707;DHT22;4390;49.302;9.306;2022-08-01T05:57:49;20.80;76.90
8707;DHT22;4390;49.302;9.306;2022-08-01T06:00:16;20.80;77.40
8707;DHT22;4390;49.302;9.306;2022-08-01T06:02:43;20.80;77.30
8707;DHT22;4390;49.302;9.306;2022-08-01T06:05:10;20.80;77.30
8707;DHT22;4390;49.302;9.306;2022-08-01T06:07:39;20.80;77.60
8707;DHT22;4390;49.302;9.306;2022-08-01T06:10:07;20.90;77.60
8707;DHT22;4390;49.302;9.306;2022-08-01T06:12:34;21.00;77.30
8707;DHT22;4390;49.302;9.306;2022-08-01T06:15:03;21.10;77.00
8707;DHT22;4390;49.302;9.306;2022-08-01T06:17:29;21.20;76.90
8707;DHT22;4390;49.302;9.306;2022-08-01T06:19:56;21.30;76.80
8707;DHT22;4390;49.302;9.306;2022-08-01T06:22:23;21.40;76.70
8707;DHT22;4390;49.302;9.306;2022-08-01T06:24:51;21.50;76.60
8707;DHT22;4390;49.302;9.306;2022-08-01T06:27:18;21.60;76.70
8707;DHT22;4390;49.302;9.306;2022-08-01T06:29:48;21.70;76.80
8707;DHT22;4390;49.302;9.306;2022-08-01T06:32:20;21.80;76.60
8707;DHT22;4390;49.302;9.306;2022-08-01T06:34:54;21.90;76.80
8707;DHT22;4390;49.302;9.306;2022-08-01T06:37:21;22.00;76.70
8707;DHT22;4390;49.302;9.306;2022-08-01T06:39:48;22.10;76.60
8707;DHT22;4390;49.302;9.306;2022-08-01T06:42:16;22.30;76.80
8707;DHT22;4390;49.302;9.306;2022-08-01T06:44:43;22.40;76.70
8707;DHT22;4390;49.302;9.306;2022-08-01T06:47:10;22.60;76.70
8707;DHT22;4390;49.302;9.306;2022-08-01T06:49:37;22.80;76.60
8707;DHT22;4390;49.302;9.306;2022-08-01T06:52:04;23.00;76.30
8707;DHT22;4390;49.302;9.306;2022-08-01T06:54:31;23.20;76.20
8707;DHT22;4390;49.302;9.306;2022-08-01T06:56:58;23.30;76.00
8707;DHT22;4390;49.302;9.306;2022-08-01T06:59:25;23.40;75.90
8707;DHT22;4390;49.302;9.306;2022-08-01T07:01:51;23.50;75.80
8707;DHT22;4390;49.302;9.306;2022-08-01T07:04:18;23.70;75.70
8707;DHT22;4390;49.302;9.306;2022-08-01T07:06:45;23.80;75.70
8707;DHT22;4390;49.302;9.306;2022-08-01T07:09:11;24.00;75.50
8707;DHT22;4390;49.302;9.306;2022-08-01T07:11:40;24.10;75.40
8707;DHT22;4390;49.302;9.306;2022-08-01T07:14:07;24.30;75.30
8707;DHT22;4390;49.302;9.306;2022-08-01T07:16:34;24.30;75.20
8707;DHT22;4390;49.302;9.306;2022-08-01T07:19:01;24.30;75.20
8707;DHT22;4390;49.302;9.306;2022-08-01T07:21:27;24.20;75.20
8707;DHT22;4390;49.302;9.306;2022-08-01T07:24:07;24.30;75.10
8707;DHT22;4390;49.302;9.306;2022-08-01T07:26:41;24.30;75.10
8707;DHT22;4390;49.302;9.306;2022-08-01T07:29:23;24.50;74.90
8707;DHT22;4390;49.302;9.306;2022-08-01T07:31:52;24.80;74.50
8707;DHT22;4390;49.302;9.306;2022-08-01T07:34:20;24.90;74.20
8707;DHT22;4390;49.302;9.306;2022-08-01T07:36:46;25.10;73.80
8707;DHT22;4390;49.302;9.306;2022-08-01T07:39:13;25.20;73.70
8707;DHT22;4390;49.302;9.306;2022-08-01T07:41:40;25.20;73.40
8707;DHT22;4390;49.302;9.306;2022-08-01T07:44:27;25.20;73.50
8707;DHT22;4390;49.302;9.306;2022-08-01T07:46:55;25.30;73.50
8707;DHT22;4390;49.302;9.306;2022-08-01T07:49:21;25.40;73.40
8707;DHT22;4390;49.302;9.306;2022-08-01T07:51:49;25.30;73.10
8707;DHT22;4390;49.302;9.306;2022-08-01T07:54:31;25.30;73.50
8707;DHT22;4390;49.302;9.306;2022-08-01T07:56:59;25.30;73.30
8707;DHT22;4390;49.302;9.306;2022-08-01T07:59:26;25.40;73.30
8707;DHT22;4390;49.302;9.306;2022-08-01T08:01:53;25.60;73.00
8707;DHT22;4390;49.302;9.306;2022-08-01T08:04:20;25.60;72.70
8707;DHT22;4390;49.302;9.306;2022-08-01T08:06:47;25.60;72.80
8707;DHT22;4390;49.302;9.306;2022-08-01T08:09:14;25.60;72.70
8707;DHT22;4390;49.302;9.306;2022-08-01T08:11:45;25.50;72.70
8707;DHT22;4390;49.302;9.306;2022-08-01T08:14:17;25.70;72.70
8707;DHT22;4390;49.302;9.306;2022-08-01T08:16:44;25.80;72.60
8707;DHT22;4390;49.302;9.306;2022-08-01T08:19:11;25.80;72.50
8707;DHT22;4390;49.302;9.306;2022-08-01T08:21:38;25.80;72.10
8707;DHT22;4390;49.302;9.306;2022-08-01T08:24:06;25.90;72.40
8707;DHT22;4390;49.302;9.306;2022-08-01T08:26:54;25.90;72.00
8707;DHT22;4390;49.302;9.306;2022-08-01T08:29:24;26.00;71.50
8707;DHT22;4390;49.302;9.306;2022-08-01T08:31:53;26.00;71.60
8707;DHT22;4390;49.302;9.306;2022-08-01T08:34:23;26.10;71.50
8707;DHT22;4390;49.302;9.306;2022-08-01T08:36:51;26.20;71.40
8707;DHT22;4390;49.302;9.306;2022-08-01T08:39:19;26.20;71.30
8707;DHT22;4390;49.302;9.306;2022-08-01T08:41:46;26.30;71.10
8707;DHT22;4390;49.302;9.306;2022-08-01T08:44:16;26.20;71.00
8707;DHT22;4390;49.302;9.306;2022-08-01T08:46:45;26.20;71.30
8707;DHT22;4390;49.302;9.306;2022-08-01T08:49:16;26.30;70.80
8707;DHT22;4390;49.302;9.306;2022-08-01T08:51:44;26.40;70.50
8707;DHT22;4390;49.302;9.306;2022-08-01T08:54:15;26.50;70.80
8707;DHT22;4390;49.302;9.306;2022-08-01T08:56:42;26.50;70.70
8707;DHT22;4390;49.302;9.306;2022-08-01T08:59:12;26.70;70.50
8707;DHT22;4390;49.302;9.306;2022-08-01T09:01:41;26.80;70.40
8707;DHT22;4390;49.302;9.306;2022-08-01T09:04:09;26.80;70.00
8707;DHT22;4390;49.302;9.306;2022-08-01T09:06:37;26.70;70.00
8707;DHT22;4390;49.302;9.306;2022-08-01T09:09:04;26.70;69.70
8707;DHT22;4390;49.302;9.306;2022-08-01T09:11:32;26.70;69.80
8707;DHT22;4390;49.302;9.306;2022-08-01T09:16:34;27.10;69.30
8707;DHT22;4390;49.302;9.306;2022-08-01T09:19:12;27.30;69.00
8707;DHT22;4390;49.302;9.306;2022-08-01T09:22:02;27.30;69.10
8707;DHT22;4390;49.302;9.306;2022-08-01T09:24:31;27.60;68.70
8707;DHT22;4390;49.302;9.306;2022-08-01T09:26:59;27.70;68.40
8707;DHT22;4390;49.302;9.306;2022-08-01T09:29:30;27.60;68.60
8707;DHT22;4390;49.302;9.306;2022-08-01T09:32:05;27.60;68.50
8707;DHT22;4390;49.302;9.306;2022-08-01T09:34:32;27.50;68.60
8707;DHT22;4390;49.302;9.306;2022-08-01T09:37:02;27.60;68.60
8707;DHT22;4390;49.302;9.306;2022-08-01T09:39:34;27.50;68.70
8707;DHT22;4390;49.302;9.306;2022-08-01T09:42:23;27.00;69.60
8707;DHT22;4390;49.302;9.306;2022-08-01T09:44:55;26.80;70.10
8707;DHT22;4390;49.302;9.306;2022-08-01T09:47:22;27.00;69.50
8707;DHT22;4390;49.302;9.306;2022-08-01T09:50:05;26.80;69.60
8707;DHT22;4390;49.302;9.306;2022-08-01T09:52:37;27.00;69.50
8707;DHT22;4390;49.302;9.306;2022-08-01T09:55:07;27.10;69.00
8707;DHT22;4390;49.302;9.306;2022-08-01T09:57:34;27.10;68.80
8707;DHT22;4390;49.302;9.306;2022-08-01T10:00:02;27.20;69.00
8707;DHT22;4390;49.302;9.306;2022-08-01T10:02:39;27.40;68.80
8707;DHT22;4390;49.302;9.306;2022-08-01T10:05:10;27.60;68.60
8707;DHT22;4390;49.302;9.306;2022-08-01T10:08:03;27.70;68.20
8707;DHT22;4390;49.302;9.306;2022-08-01T10:10:33;27.60;68.70
8707;DHT22;4390;49.302;9.306;2022-08-01T10:13:03;27.80;68.60
8707;DHT22;4390;49.302;9.306;2022-08-01T10:15:31;28.00;68.00
8707;DHT22;4390;49.302;9.306;2022-08-01T10:18:07;28.20;67.60
8707;DHT22;4390;49.302;9.306;2022-08-01T10:20:51;28.30;67.30
8707;DHT22;4390;49.302;9.306;2022-08-01T10:23:22;28.50;67.10
8707;DHT22;4390;49.302;9.306;2022-08-01T10:26:07;28.50;67.10
8707;DHT22;4390;49.302;9.306;2022-08-01T10:28:36;28.60;67.20
8707;DHT22;4390;49.302;9.306;2022-08-01T10:31:06;28.70;66.60
8707;DHT22;4390;49.302;9.306;2022-08-01T10:33:40;28.70;66.80
8707;DHT22;4390;49.302;9.306;2022-08-01T10:36:21;28.70;66.50
8707;DHT22;4390;49.302;9.306;2022-08-01T10:38:53;28.80;66.40
8707;DHT22;4390;49.302;9.306;2022-08-01T10:41:21;28.70;66.50
8707;DHT22;4390;49.302;9.306;2022-08-01T10:43:48;28.80;66.50
8707;DHT22;4390;49.302;9.306;2022-08-01T10:46:15;28.70;66.50
8707;DHT22;4390;49.302;9.306;2022-08-01T10:48:51;28.60;66.60
8707;DHT22;4390;49.302;9.306;2022-08-01T10:51:20;28.70;66.70
8707;DHT22;4390;49.302;9.306;2022-08-01T10:54:12;28.90;66.10
8707;DHT22;4390;49.302;9.306;2022-08-01T10:56:42;28.90;65.70
8707;DHT22;4390;49.302;9.306;2022-08-01T10:59:10;29.00;65.80
8707;DHT22;4390;49.302;9.306;2022-08-01T11:01:40;29.10;65.60
8707;DHT22;4390;49.302;9.306;2022-08-01T11:04:14;29.20;65.30
8707;DHT22;4390;49.302;9.306;2022-08-01T11:07:05;29.40;65.40
8707;DHT22;4390;49.302;9.306;2022-08-01T11:12:11;29.90;64.30
8707;DHT22;4390;49.302;9.306;2022-08-01T11:17:42;29.90;63.70
8707;DHT22;4390;49.302;9.306;2022-08-01T11:20:22;29.80;63.60
8707;DHT22;4390;49.302;9.306;2022-08-01T11:28:26;30.30;63.90
8707;DHT22;4390;49.302;9.306;2022-08-01T11:41:29;30.30;63.60
8707;DHT22;4390;49.302;9.306;2022-08-01T11:44:15;30.30;63.60
8707;DHT22;4390;49.302;9.306;2022-08-01T11:46:58;30.20;63.50
8707;DHT22;4390;49.302;9.306;2022-08-01T11:52:29;30.10;64.00
8707;DHT22;4390;49.302;9.306;2022-08-01T11:55:08;30.10;63.70
8707;DHT22;4390;49.302;9.306;2022-08-01T11:57:37;30.10;64.00
8707;DHT22;4390;49.302;9.306;2022-08-01T12:00:14;29.90;64.00
8707;DHT22;4390;49.302;9.306;2022-08-01T12:02:44;29.70;64.20
8707;DHT22;4390;49.302;9.306;2022-08-01T12:05:14;29.80;64.20
8707;DHT22;4390;49.302;9.306;2022-08-01T12:07:43;29.80;64.20
8707;DHT22;4390;49.302;9.306;2022-08-01T12:10:15;29.70;64.20
8707;DHT22;4390;49.302;9.306;2022-08-01T12:12:43;29.80;64.30
8707;DHT22;4390;49.302;9.306;2022-08-01T12:15:11;29.80;64.30
8707;DHT22;4390;49.302;9.306;2022-08-01T12:18:00;29.90;64.30
8707;DHT22;4390;49.302;9.306;2022-08-01T12:20:31;30.10;64.40
8707;DHT22;4390;49.302;9.306;2022-08-01T12:23:00;30.40;63.90
8707;DHT22;4390;49.302;9.306;2022-08-01T12:25:29;30.60;63.40
8707;DHT22;4390;49.302;9.306;2022-08-01T12:28:00;30.90;62.90
8707;DHT22;4390;49.302;9.306;2022-08-01T12:30:27;31.10;62.20
8707;DHT22;4390;49.302;9.306;2022-08-01T12:32:55;31.10;62.50
8707;DHT22;4390;49.302;9.306;2022-08-01T12:35:27;31.20;62.20
8707;DHT22;4390;49.302;9.306;2022-08-01T12:37:57;31.10;62.10
8707;DHT22;4390;49.302;9.306;2022-08-01T12:40:29;30.80;62.40
8707;DHT22;4390;49.302;9.306;2022-08-01T12:43:01;30.80;62.40
8707;DHT22;4390;49.302;9.306;2022-08-01T12:45:35;30.90;62.70
8707;DHT22;4390;49.302;9.306;2022-08-01T12:48:07;31.00;62.30
8707;DHT22;4390;49.302;9.306;2022-08-01T12:50:37;31.20;62.10
8707;DHT22;4390;49.302;9.306;2022-08-01T12:53:04;31.40;61.70
8707;DHT22;4390;49.302;9.306;2022-08-01T12:55:32;31.50;61.60
8707;DHT22;4390;49.302;9.306;2022-08-01T12:58:07;31.50;61.50
8707;DHT22;4390;49.302;9.306;2022-08-01T13:00:42;31.50;61.40
8707;DHT22;4390;49.302;9.306;2022-08-01T13:03:19;31.50;61.00
8707;DHT22;4390;49.302;9.306;2022-08-01T13:05:51;31.50;61.20
8707;DHT22;4390;49.302;9.306;2022-08-01T13:10:50;31.30;60.60
8707;DHT22;4390;49.302;9.306;2022-08-01T13:13:18;31.00;61.00
8707;DHT22;4390;49.302;9.306;2022-08-01T13:16:03;30.80;61.10
8707;DHT22;4390;49.302;9.306;2022-08-01T13:18:32;30.70;61.10
8707;DHT22;4390;49.302;9.306;2022-08-01T13:21:15;30.70;61.10
8707;DHT22;4390;49.302;9.306;2022-08-01T13:24:04;30.80;61.00
8707;DHT22;4390;49.302;9.306;2022-08-01T13:26:52;30.60;61.10
8707;DHT22;4390;49.302;9.306;2022-08-01T13:32:16;30.60;60.50
8707;DHT22;4390;49.302;9.306;2022-08-01T13:35:07;30.50;60.60
8707;DHT22;4390;49.302;9.306;2022-08-01T13:37:35;30.60;60.80
8707;DHT22;4390;49.302;9.306;2022-08-01T13:40:08;30.60;60.70
8707;DHT22;4390;49.302;9.306;2022-08-01T13:42:35;30.90;60.80
8707;DHT22;4390;49.302;9.306;2022-08-01T13:45:04;31.00;60.20
8707;DHT22;4390;49.302;9.306;2022-08-01T13:47:43;31.20;60.00
8707;DHT22;4390;49.302;9.306;2022-08-01T13:50:30;31.40;60.30
8707;DHT22;4390;49.302;9.306;2022-08-01T13:52:58;31.60;60.20
8707;DHT22;4390;49.302;9.306;2022-08-01T13:55:24;31.70;60.20
8707;DHT22;4390;49.302;9.306;2022-08-01T13:57:55;31.90;59.70
8707;DHT22;4390;49.302;9.306;2022-08-01T14:00:22;32.10;59.60
8707;DHT22;4390;49.302;9.306;2022-08-01T14:02:48;32.20;59.50
8707;DHT22;4390;49.302;9.306;2022-08-01T14:05:15;32.10;59.20
8707;DHT22;4390;49.302;9.306;2022-08-01T14:07:42;32.10;59.10
8707;DHT22;4390;49.302;9.306;2022-08-01T14:10:14;32.20;58.80
8707;DHT22;4390;49.302;9.306;2022-08-01T14:12:48;32.30;58.20
8707;DHT22;4390;49.302;9.306;2022-08-01T14:15:16;32.40;58.00
8707;DHT22;4390;49.302;9.306;2022-08-01T14:22:09;32.20;58.40
8707;DHT22;4390;49.302;9.306;2022-08-01T14:24:36;32.10;58.80
8707;DHT22;4390;49.302;9.306;2022-08-01T14:27:06;32.20;58.70
8707;DHT22;4390;49.302;9.306;2022-08-01T14:29:33;32.40;58.50
8707;DHT22;4390;49.302;9.306;2022-08-01T14:32:19;32.50;58.40
8707;DHT22;4390;49.302;9.306;2022-08-01T14:34:54;32.50;58.40
8707;DHT22;4390;49.302;9.306;2022-08-01T14:37:22;32.60;58.00
8707;DHT22;4390;49.302;9.306;2022-08-01T14:39:59;32.40;58.00
8707;DHT22;4390;49.302;9.306;2022-08-01T14:42:33;32.40;58.20
8707;DHT22;4390;49.302;9.306;2022-08-01T14:45:00;32.00;58.90
8707;DHT22;4390;49.302;9.306;2022-08-01T14:47:27;31.90;59.20
8707;DHT22;4390;49.302;9.306;2022-08-01T14:49:53;31.90;59.20
8707;DHT22;4390;49.302;9.306;2022-08-01T14:52:20;31.90;58.80
8707;DHT22;4390;49.302;9.306;2022-08-01T14:54:47;31.70;59.00
8707;DHT22;4390;49.302;9.306;2022-08-01T14:57:14;31.50;59.30
8707;DHT22;4390;49.302;9.306;2022-08-01T14:59:45;31.50;59.40
8707;DHT22;4390;49.302;9.306;2022-08-01T15:02:12;31.40;59.50
8707;DHT22;4390;49.302;9.306;2022-08-01T15:04:44;31.40;59.60
8707;DHT22;4390;49.302;9.306;2022-08-01T15:07:11;31.50;59.80
8707;DHT22;4390;49.302;9.306;2022-08-01T15:09:37;31.50;60.00
8707;DHT22;4390;49.302;9.306;2022-08-01T15:12:05;31.60;59.90
8707;DHT22;4390;49.302;9.306;2022-08-01T15:14:32;31.60;60.20
8707;DHT22;4390;49.302;9.306;2022-08-01T15:19:50;31.70;59.80
8707;DHT22;4390;49.302;9.306;2022-08-01T15:22:17;31.80;59.70
8707;DHT22;4390;49.302;9.306;2022-08-01T15:24:44;31.70;59.70
8707;DHT22;4390;49.302;9.306;2022-08-01T15:27:11;31.80;59.80
8707;DHT22;4390;49.302;9.306;2022-08-01T15:29:38;32.00;59.90
8707;DHT22;4390;49.302;9.306;2022-08-01T15:32:06;32.10;59.60
8707;DHT22;4390;49.302;9.306;2022-08-01T15:34:34;32.10;59.60
8707;DHT22;4390;49.302;9.306;2022-08-01T15:37:02;31.90;59.40
8707;DHT22;4390;49.302;9.306;2022-08-01T15:39:30;31.80;59.50
8707;DHT22;4390;49.302;9.306;2022-08-01T15:42:02;31.60;59.70
8707;DHT22;4390;49.302;9.306;2022-08-01T15:44:31;31.60;59.70
8707;DHT22;4390;49.302;9.306;2022-08-01T15:46:58;31.40;59.80
8707;DHT22;4390;49.302;9.306;2022-08-01T15:49:24;31.30;60.00
8707;DHT22;4390;49.302;9.306;2022-08-01T15:51:51;31.20;60.20
8707;DHT22;4390;49.302;9.306;2022-08-01T15:54:18;31.10;60.40
8707;DHT22;4390;49.302;9.306;2022-08-01T15:56:45;31.00;60.30
8707;DHT22;4390;49.302;9.306;2022-08-01T15:59:13;31.00;60.50
8707;DHT22;4390;49.302;9.306;2022-08-01T16:01:40;31.00;60.40
8707;DHT22;4390;49.302;9.306;2022-08-01T16:04:07;31.00;60.50
8707;DHT22;4390;49.302;9.306;2022-08-01T16:06:35;30.90;60.80
8707;DHT22;4390;49.302;9.306;2022-08-01T16:09:05;30.80;61.00
8707;DHT22;4390;49.302;9.306;2022-08-01T16:11:32;30.70;61.20
8707;DHT22;4390;49.302;9.306;2022-08-01T16:13:59;30.60;61.40
8707;DHT22;4390;49.302;9.306;2022-08-01T16:16:26;30.60;61.60
8707;DHT22;4390;49.302;9.306;2022-08-01T16:18:53;30.60;61.70
8707;DHT22;4390;49.302;9.306;2022-08-01T16:21:20;30.60;61.90
8707;DHT22;4390;49.302;9.306;2022-08-01T16:23:50;30.50;62.10
8707;DHT22;4390;49.302;9.306;2022-08-01T16:26:17;30.50;61.90
8707;DHT22;4390;49.302;9.306;2022-08-01T16:28:54;30.50;61.70
8707;DHT22;4390;49.302;9.306;2022-08-01T16:31:20;30.40;61.70
8707;DHT22;4390;49.302;9.306;2022-08-01T16:34:07;30.40;61.80
8707;DHT22;4390;49.302;9.306;2022-08-01T16:36:38;30.50;61.70
8707;DHT22;4390;49.302;9.306;2022-08-01T16:39:05;30.40;61.70
8707;DHT22;4390;49.302;9.306;2022-08-01T16:41:34;30.40;61.80
8707;DHT22;4390;49.302;9.306;2022-08-01T16:44:03;30.40;61.80
8707;DHT22;4390;49.302;9.306;2022-08-01T16:46:32;30.40;61.90
8707;DHT22;4390;49.302;9.306;2022-08-01T16:48:59;30.40;62.10
8707;DHT22;4390;49.302;9.306;2022-08-01T16:51:26;30.40;62.10
8707;DHT22;4390;49.302;9.306;2022-08-01T16:53:58;30.40;62.20
8707;DHT22;4390;49.302;9.306;2022-08-01T16:56:24;30.40;62.20
8707;DHT22;4390;49.302;9.306;2022-08-01T16:58:51;30.20;62.30
8707;DHT22;4390;49.302;9.306;2022-08-01T17:01:18;30.10;62.40
8707;DHT22;4390;49.302;9.306;2022-08-01T17:04:05;30.10;62.20
8707;DHT22;4390;49.302;9.306;2022-08-01T17:06:32;30.10;62.10
8707;DHT22;4390;49.302;9.306;2022-08-01T17:08:59;29.90;62.10
8707;DHT22;4390;49.302;9.306;2022-08-01T17:11:25;29.90;62.20